Time;durP1;ratioP1;P1;durP2;ratioP2;P2;SDS_P1;SDS_P2;PMS_P1;PMS_P2;Temp;Humidity;BMP_temperature;BMP_pressure;BME280_temperature;BME280_humidity;BME280_pressure;Samples;Min_cycle;Max_cycle;Signal;HPM_P1;HPM_P2
2022/06/17 00:00:47;;;;;;;;;;;;;;;23.94;27.42;100156.84;5094781;28;19958;-68
2022/06/17 00:03:12;;;;;;;;;;;;;;;23.93;27.40;100165.31;5094644;28;19916;-68
2022/06/17 00:05:37;;;;;;;;;;;;;;;23.92;27.40;100150.84;5094497;28;19916;-69
2022/06/17 00:08:03;;;;;;;;;;;;;;;23.93;27.44;100149.75;5076843;28;20003;-69
2022/06/17 00:10:28;;;;;;;;;;;;;;;23.93;27.55;100154.38;5095266;28;20274;-69
2022/06/17 00:12:53;;;;;;;;;;;;;;;23.91;27.63;100156.59;5094758;28;19920;-69
2022/06/17 00:15:19;;;;;;;;;;;;;;;23.91;27.49;100154.66;5094810;28;20363;-69
2022/06/17 00:17:54;;;;;;;;;;;;;;;23.92;27.59;100158.22;5094813;28;19927;-69
2022/06/17 00:20:20;;;;;;;;;;;;;;;23.90;27.72;100150.28;5094470;28;19916;-69
2022/06/17 00:22:45;;;;;;;;;;;;;;;23.91;27.85;100162.06;5076249;28;19931;-69
2022/06/17 00:25:15;;;;;;;;;;;;;;;23.92;27.57;100152.75;5094250;28;20050;-69
2022/06/17 00:27:40;;;;;;;;;;;;;;;23.90;27.88;100150.28;5076134;28;19965;-69
2022/06/17 00:30:12;;;;;;;;;;;;;;;23.90;27.59;100154.94;5094574;28;19983;-69
2022/06/17 00:32:38;;;;;;;;;;;;;;;23.89;27.87;100154.13;5076872;28;19916;-69
2022/06/17 00:35:03;;;;;;;;;;;;;;;23.89;27.53;100154.13;5094845;28;20286;-69
2022/06/17 00:37:28;;;;;;;;;;;;;;;23.89;27.53;100150.59;5093964;28;19926;-69
2022/06/17 00:39:54;;;;;;;;;;;;;;;23.91;27.53;100156.59;5076141;28;19950;-69
2022/06/17 00:42:21;;;;;;;;;;;;;;;23.90;27.79;100154.94;5094218;28;20358;-69
2022/06/17 00:44:49;;;;;;;;;;;;;;;23.88;27.67;100157.16;5093938;28;20358;-68
2022/06/17 00:47:20;;;;;;;;;;;;;;;23.88;27.47;100151.69;5093966;28;19951;-69
2022/06/17 00:49:48;;;;;;;;;;;;;;;23.88;27.61;100148.97;5094234;28;19955;-69
2022/06/17 00:52:18;;;;;;;;;;;;;;;23.89;27.51;100150.59;5094171;28;19920;-69
2022/06/17 00:54:44;;;;;;;;;;;;;;;23.88;27.72;100147.03;5075757;28;19916;-70
2022/06/17 00:57:29;;;;;;;;;;;;;;;23.89;27.64;100148.69;5094185;28;19916;-70
2022/06/17 01:00:06;;;;;;;;;;;;;;;23.86;27.91;100153.91;5092941;28;20281;-68
2022/06/17 01:02:33;;;;;;;;;;;;;;;23.87;27.72;100156.34;5093495;28;20383;-69
2022/06/17 01:04:58;;;;;;;;;;;;;;;23.86;27.74;100153.91;5075966;28;19916;-69
2022/06/17 01:07:24;;;;;;;;;;;;;;;23.87;27.91;100155.50;5093988;28;19942;-69
2022/06/17 01:09:57;;;;;;;;;;;;;;;23.86;27.85;100160.16;5075497;28;19923;-69
2022/06/17 01:12:31;;;;;;;;;;;;;;;23.86;27.83;100162.06;5093893;28;20328;-69
2022/06/17 01:14:56;;;;;;;;;;;;;;;23.88;27.96;100157.16;5093958;28;19922;-69
2022/06/17 01:17:21;;;;;;;;;;;;;;;23.88;27.96;100152.50;5093948;28;19995;-69
2022/06/17 01:19:51;;;;;;;;;;;;;;;23.87;28.01;100158.22;5093382;28;19956;-69
2022/06/17 01:22:16;;;;;;;;;;;;;;;23.86;28.22;100154.69;5094278;28;19916;-69
2022/06/17 01:24:42;;;;;;;;;;;;;;;23.86;28.23;100153.91;5093803;28;20397;-69
2022/06/17 01:27:07;;;;;;;;;;;;;;;23.87;28.38;100159.06;5093869;28;19917;-69
2022/06/17 01:29:34;;;;;;;;;;;;;;;23.87;28.41;100155.50;5093581;28;20371;-69
2022/06/17 01:31:59;;;;;;;;;;;;;;;23.86;28.57;100156.63;5093649;28;20007;-69
2022/06/17 01:34:24;;;;;;;;;;;;;;;23.86;28.47;100162.88;5093743;28;20030;-69
2022/06/17 01:36:50;;;;;;;;;;;;;;;23.87;28.41;100152.78;5093952;28;19928;-69
2022/06/17 01:39:16;;;;;;;;;;;;;;;23.86;28.51;100160.16;5075457;28;20006;-69
2022/06/17 01:41:41;;;;;;;;;;;;;;;23.87;28.54;100163.69;5075844;28;19917;-69
2022/06/17 01:44:19;;;;;;;;;;;;;;;23.86;28.46;100162.06;5075661;28;19938;-69
2022/06/17 01:46:45;;;;;;;;;;;;;;;23.85;28.37;100154.97;5075585;28;19916;-69
2022/06/17 01:49:23;;;;;;;;;;;;;;;23.84;28.03;100164.28;5093577;28;20429;-69
2022/06/17 01:51:59;;;;;;;;;;;;;;;23.84;28.23;100156.09;5093203;28;19916;-69
2022/06/17 01:54:25;;;;;;;;;;;;;;;23.82;28.21;100161.81;5075477;28;19943;-69
2022/06/17 01:56:51;;;;;;;;;;;;;;;23.80;28.02;100159.34;5075196;28;19923;-69
2022/06/17 01:59:18;;;;;;;;;;;;;;;23.80;27.73;100162.06;5075248;28;19916;-68
2022/06/17 02:01:43;;;;;;;;;;;;;;;23.81;27.74;100173.81;5074929;28;20421;-68
2022/06/17 02:04:10;;;;;;;;;;;;;;;23.81;27.66;100161.00;5075376;28;19920;-68
2022/06/17 02:06:48;;;;;;;;;;;;;;;23.83;27.64;100171.63;5075424;28;19920;-70
2022/06/17 02:09:13;;;;;;;;;;;;;;;23.80;27.55;100173.00;5093449;28;20263;-69
2022/06/17 02:11:39;;;;;;;;;;;;;;;23.81;27.43;100171.09;5096842;28;19923;-69
2022/06/17 02:14:07;;;;;;;;;;;;;;;23.81;27.34;100180.09;5097039;28;19916;-70
2022/06/17 02:16:39;;;;;;;;;;;;;;;23.82;27.14;100175.47;5097072;28;19977;-69
2022/06/17 02:19:05;;;;;;;;;;;;;;;23.83;27.05;100181.75;5078982;28;20041;-69
2022/06/17 02:21:33;;;;;;;;;;;;;;;23.83;27.15;100173.56;5097102;28;19920;-70
2022/06/17 02:23:58;;;;;;;;;;;;;;;23.83;27.08;100181.75;5096992;28;19927;-68
2022/06/17 02:26:23;;;;;;;;;;;;;;;23.83;26.92;100187.19;5078444;28;19920;-69
2022/06/17 02:28:49;;;;;;;;;;;;;;;23.81;26.90;100185.56;5096933;28;20006;-70
2022/06/17 02:31:14;;;;;;;;;;;;;;;23.83;26.88;100195.38;5078453;28;19924;-70
2022/06/17 02:33:39;;;;;;;;;;;;;;;23.83;26.89;100189.94;5096673;28;19916;-68
2022/06/17 02:36:16;;;;;;;;;;;;;;;23.81;27.07;100196.47;5096356;28;20397;-69
2022/06/17 02:38:42;;;;;;;;;;;;;;;23.82;27.08;100194.56;5096231;28;19924;-69
2022/06/17 02:41:09;;;;;;;;;;;;;;;23.81;26.94;100196.47;5096432;28;20377;-69
2022/06/17 02:43:38;;;;;;;;;;;;;;;23.79;26.87;100195.09;5078168;28;19916;-69
2022/06/17 02:46:11;;;;;;;;;;;;;;;23.80;26.93;100205.75;5096068;28;20432;-70
2022/06/17 02:48:42;;;;;;;;;;;;;;;23.78;27.03;100204.38;5078071;28;19973;-69
2022/06/17 02:51:07;;;;;;;;;;;;;;;23.77;26.71;100203.56;5078274;28;19916;-70
2022/06/17 02:53:33;;;;;;;;;;;;;;;23.78;26.91;100205.22;5096014;28;20010;-70
2022/06/17 02:55:59;;;;;;;;;;;;;;;23.80;26.94;100208.47;5096043;28;20354;-70
2022/06/17 02:58:24;;;;;;;;;;;;;;;23.79;27.06;100208.75;5096313;28;19965;-70
2022/06/17 03:00:50;;;;;;;;;;;;;;;23.79;27.09;100215.00;5096138;28;20390;-69
2022/06/17 03:03:15;;;;;;;;;;;;;;;23.84;27.01;100211.47;5095713;28;20361;-70
2022/06/17 03:05:41;;;;;;;;;;;;;;;23.90;26.84;100214.97;5096039;28;19917;-70
2022/06/17 03:08:34;;;;;;;;;;;;;;;23.94;26.83;100210.59;5078097;28;20391;-70
2022/06/17 03:10:59;;;;;;;;;;;;;;;23.95;26.92;100212.22;5093042;28;19916;-70
2022/06/17 03:13:25;;;;;;;;;;;;;;;24.01;26.90;100222.03;5095878;28;20050;-70
2022/06/17 03:15:51;;;;;;;;;;;;;;;24.05;26.67;100228.56;5095783;28;20370;-70
2022/06/17 03:18:16;;;;;;;;;;;;;;;24.09;26.64;100229.63;5095649;28;19920;-70
2022/06/17 03:20:42;;;;;;;;;;;;;;;24.11;26.71;100232.91;5095687;28;19920;-70
2022/06/17 03:23:11;;;;;;;;;;;;;;;24.18;26.79;100232.56;5094639;28;20321;-70
2022/06/17 03:25:39;;;;;;;;;;;;;;;24.25;26.71;100232.25;5077299;28;19916;-70
2022/06/17 03:28:07;;;;;;;;;;;;;;;24.25;26.68;100229.53;5077426;28;19920;-70
2022/06/17 03:30:33;;;;;;;;;;;;;;;24.26;26.68;100242.91;5077651;28;19923;-70
2022/06/17 03:33:13;;;;;;;;;;;;;;;24.29;26.70;100230.59;5077092;28;19923;-70
2022/06/17 03:35:39;;;;;;;;;;;;;;;24.33;26.68;100231.66;5095180;28;20362;-70
2022/06/17 03:38:28;;;;;;;;;;;;;;;24.34;26.32;100230.56;5077005;28;19985;-70
2022/06/17 03:40:54;;;;;;;;;;;;;;;24.38;26.32;100242.56;5083841;28;19962;-70
2022/06/17 03:43:21;;;;;;;;;;;;;;;24.42;26.26;100242.78;5077038;28;19942;-70
2022/06/17 03:45:47;;;;;;;;;;;;;;;24.45;26.46;100243.03;5076894;28;19942;-70
2022/06/17 03:48:31;;;;;;;;;;;;;;;24.47;26.36;100257.22;5095077;28;19916;-70
2022/06/17 03:50:56;;;;;;;;;;;;;;;24.49;26.18;100255.06;5094896;28;19923;-70
2022/06/17 03:53:21;;;;;;;;;;;;;;;24.52;26.31;100251.72;5095136;28;19916;-69
2022/06/17 03:55:46;;;;;;;;;;;;;;;24.54;26.11;100249.59;5094782;28;19916;-70
2022/06/17 03:58:14;;;;;;;;;;;;;;;24.55;26.04;100248.47;5094570;28;19961;-69
2022/06/17 04:00:44;;;;;;;;;;;;;;;24.57;26.21;100250.91;5076581;28;19916;-69
2022/06/17 04:03:16;;;;;;;;;;;;;;;24.61;25.79;100248.44;5076730;28;19916;-70
2022/06/17 04:05:41;;;;;;;;;;;;;;;24.64;25.75;100245.13;5076559;28;20007;-69
2022/06/17 04:08:08;;;;;;;;;;;;;;;24.66;25.98;100251.13;5094365;28;20045;-69
2022/06/17 04:10:34;;;;;;;;;;;;;;;24.66;26.01;100248.38;5076539;28;19916;-69
2022/06/17 04:12:59;;;;;;;;;;;;;;;24.67;25.88;100242.63;5094612;28;20211;-68
2022/06/17 04:15:43;;;;;;;;;;;;;;;24.68;25.73;100243.44;5076374;28;19916;-70
2022/06/17 04:18:08;;;;;;;;;;;;;;;24.69;25.76;100254.09;5094237;28;20362;-69
2022/06/17 04:20:42;;;;;;;;;;;;;;;24.71;25.66;100251.88;5094170;28;19927;-69
2022/06/17 04:23:11;;;;;;;;;;;;;;;24.74;25.84;100245.06;5076159;28;19946;-69
2022/06/17 04:25:38;;;;;;;;;;;;;;;24.73;25.64;100237.94;5094538;28;19912;-69
2022/06/17 04:28:06;;;;;;;;;;;;;;;24.77;25.61;100244.47;5076126;28;19997;-69
2022/06/17 04:30:36;;;;;;;;;;;;;;;24.80;25.63;100243.91;5094358;28;19912;-69
2022/06/17 04:33:04;;;;;;;;;;;;;;;24.83;25.73;100240.59;5075567;28;19966;-69
2022/06/17 04:35:29;;;;;;;;;;;;;;;24.84;25.55;100244.97;5094178;28;19918;-69
2022/06/17 04:37:55;;;;;;;;;;;;;;;24.88;25.46;100237.00;5076015;28;19967;-69
2022/06/17 04:40:31;;;;;;;;;;;;;;;24.91;25.36;100250.09;5094465;28;19971;-69
2022/06/17 04:42:56;;;;;;;;;;;;;;;24.86;25.74;100248.22;5076435;28;19944;-69
2022/06/17 04:45:23;;;;;;;;;;;;;;;24.93;25.52;100248.69;5077001;28;20347;-69
2022/06/17 04:47:48;;;;;;;;;;;;;;;24.99;25.35;100254.13;5094211;28;19916;-70
2022/06/17 04:50:14;;;;;;;;;;;;;;;24.98;25.38;100255.25;5094676;28;19920;-69
2022/06/17 04:52:43;;;;;;;;;;;;;;;25.00;25.33;100256.56;5094266;28;19916;-69
2022/06/17 04:55:13;;;;;;;;;;;;;;;25.01;25.35;100257.38;5095241;28;19923;-69
2022/06/17 04:57:39;;;;;;;;;;;;;;;25.00;25.22;100247.56;5076430;28;19916;-69
2022/06/17 05:00:05;;;;;;;;;;;;;;;25.04;25.38;100254.06;5093774;28;19951;-69
2022/06/17 05:02:31;;;;;;;;;;;;;;;25.05;25.51;100247.53;5075978;28;20354;-69
2022/06/17 05:04:57;;;;;;;;;;;;;;;25.04;25.48;100248.59;5093394;28;19978;-69
2022/06/17 05:07:23;;;;;;;;;;;;;;;25.04;25.25;100237.69;5093617;28;20270;-70
2022/06/17 05:09:56;;;;;;;;;;;;;;;25.11;25.29;100249.09;5093721;28;19923;-70
2022/06/17 05:12:21;;;;;;;;;;;;;;;25.13;25.49;100246.91;5093575;28;20294;-70
2022/06/17 05:14:46;;;;;;;;;;;;;;;25.16;25.22;100246.31;5093626;28;19920;-69
2022/06/17 05:17:11;;;;;;;;;;;;;;;25.17;25.13;100242.47;5093563;28;20417;-69
2022/06/17 05:19:37;;;;;;;;;;;;;;;25.21;25.30;100254.44;5093293;28;20235;-69
2022/06/17 05:22:02;;;;;;;;;;;;;;;25.24;25.35;100245.69;5093926;28;19976;-70
2022/06/17 05:24:28;;;;;;;;;;;;;;;25.25;24.95;100255.56;5075660;28;19920;-70
2022/06/17 05:26:53;;;;;;;;;;;;;;;25.27;25.02;100258.00;5093726;28;20014;-70
2022/06/17 05:29:18;;;;;;;;;;;;;;;25.26;24.91;100259.09;5093577;28;19920;-70
2022/06/17 05:31:49;;;;;;;;;;;;;;;25.27;25.05;100255.28;5094254;28;19920;-70
2022/06/17 05:34:14;;;;;;;;;;;;;;;25.35;25.17;100262.00;5093952;28;19920;-69
2022/06/17 05:36:40;;;;;;;;;;;;;;;25.37;24.85;100257.91;5074400;28;20294;-69
2022/06/17 05:39:08;;;;;;;;;;;;;;;25.33;25.09;100250.56;5073937;28;19916;-71
2022/06/17 05:41:33;;;;;;;;;;;;;;;25.36;24.85;100250.78;5073362;28;20291;-71
2022/06/17 05:43:59;;;;;;;;;;;;;;;25.38;24.98;100259.50;5055419;28;19916;-69
2022/06/17 05:46:24;;;;;;;;;;;;;;;25.38;24.83;100258.72;5076174;28;19916;-68
2022/06/17 05:48:49;;;;;;;;;;;;;;;25.35;24.82;100254.63;5077282;28;19916;-69
2022/06/17 05:51:15;;;;;;;;;;;;;;;25.37;24.89;100268.84;5076402;28;19916;-68
2022/06/17 05:53:40;;;;;;;;;;;;;;;25.30;24.84;100258.25;5077221;28;19924;-68
2022/06/17 05:56:05;;;;;;;;;;;;;;;25.39;24.75;100252.13;5076673;28;20358;-68
2022/06/17 05:58:30;;;;;;;;;;;;;;;25.40;24.90;100257.28;5059060;28;19916;-69
2022/06/17 06:00:56;;;;;;;;;;;;;;;25.43;24.88;100262.19;5076187;28;20026;-68
2022/06/17 06:03:22;;;;;;;;;;;;;;;25.47;24.92;100266.00;5076533;28;20279;-68
2022/06/17 06:05:47;;;;;;;;;;;;;;;25.46;24.89;100266.28;5076233;28;20007;-68
2022/06/17 06:08:12;;;;;;;;;;;;;;;25.50;24.70;100264.59;5076253;28;19916;-69
2022/06/17 06:10:38;;;;;;;;;;;;;;;25.52;24.91;100265.09;5076402;28;19922;-69
2022/06/17 06:13:03;;;;;;;;;;;;;;;25.53;24.77;100266.75;5076378;28;20330;-69
2022/06/17 06:15:39;;;;;;;;;;;;;;;25.53;24.64;100264.00;5076253;28;20357;-69
2022/06/17 06:18:08;;;;;;;;;;;;;;;25.53;24.61;100272.22;5076449;28;19974;-69
2022/06/17 06:20:33;;;;;;;;;;;;;;;25.54;24.41;100273.84;5075704;28;20385;-68
2022/06/17 06:22:59;;;;;;;;;;;;;;;25.55;24.70;100261.00;5077711;28;19921;-68
2022/06/17 06:25:24;;;;;;;;;;;;;;;25.59;24.62;100259.28;5078674;28;20282;-68
2022/06/17 06:27:49;;;;;;;;;;;;;;;25.63;24.58;100269.38;5078556;28;19944;-69
2022/06/17 06:30:19;;;;;;;;;;;;;;;25.63;24.30;100261.16;5076576;28;20378;-69
2022/06/17 06:32:51;;;;;;;;;;;;;;;25.62;24.41;100251.31;5076323;28;19958;-69
2022/06/17 06:35:16;;;;;;;;;;;;;;;25.62;24.43;100259.53;5076299;28;19985;-69
2022/06/17 06:37:41;;;;;;;;;;;;;;;25.67;24.35;100266.88;5086225;28;20007;-70
2022/06/17 06:40:07;;;;;;;;;;;;;;;25.65;24.37;100269.88;5096282;28;20375;-69
2022/06/17 06:42:32;;;;;;;;;;;;;;;25.65;24.26;100272.63;5096190;28;20363;-69
2022/06/17 06:44:58;;;;;;;;;;;;;;;25.65;24.16;100274.56;5096316;28;19963;-69
2022/06/17 06:47:23;;;;;;;;;;;;;;;25.63;24.25;100277.56;5095820;28;20393;-69
2022/06/17 06:49:48;;;;;;;;;;;;;;;25.64;24.40;100278.38;5096125;28;19916;-69
2022/06/17 06:52:13;;;;;;;;;;;;;;;25.64;24.50;100289.34;5077632;28;20409;-68
2022/06/17 06:54:45;;;;;;;;;;;;;;;25.63;24.38;100276.75;5096047;28;19916;-68
2022/06/17 06:57:11;;;;;;;;;;;;;;;25.59;24.38;100275.69;5095519;28;19974;-69
2022/06/17 06:59:36;;;;;;;;;;;;;;;25.65;24.23;100285.50;5078679;28;19934;-70
2022/06/17 07:02:02;;;;;;;;;;;;;;;25.71;24.31;100286.25;5095914;28;20006;-69
2022/06/17 07:04:27;;;;;;;;;;;;;;;25.71;24.19;100283.50;5095992;28;20022;-69
2022/06/17 07:06:52;;;;;;;;;;;;;;;25.72;24.06;100282.41;5078144;28;20235;-69
2022/06/17 07:09:18;;;;;;;;;;;;;;;25.70;24.08;100287.34;5096447;28;19916;-69
2022/06/17 07:11:43;;;;;;;;;;;;;;;25.77;24.11;100287.84;5096290;28;20330;-69
2022/06/17 07:14:08;;;;;;;;;;;;;;;25.77;23.97;100287.84;5096024;28;20352;-69
2022/06/17 07:16:33;;;;;;;;;;;;;;;25.76;24.05;100300.69;5097174;28;19973;-71
2022/06/17 07:18:59;;;;;;;;;;;;;;;25.80;24.11;100303.66;5096427;28;20289;-69
2022/06/17 07:21:24;;;;;;;;;;;;;;;25.78;23.79;100300.41;5096496;28;20262;-70
2022/06/17 07:23:49;;;;;;;;;;;;;;;25.77;23.86;100304.25;5096239;28;19924;-70
2022/06/17 07:26:22;;;;;;;;;;;;;;;25.77;23.91;100304.25;5098388;28;19916;-67
2022/06/17 07:28:47;;;;;;;;;;;;;;;25.75;23.72;100307.28;5096604;28;19993;-69
2022/06/17 07:31:13;;;;;;;;;;;;;;;25.73;23.98;100303.19;5095288;28;19916;-68
2022/06/17 07:33:38;;;;;;;;;;;;;;;25.78;23.94;100305.88;5095416;28;19923;-68
2022/06/17 07:36:04;;;;;;;;;;;;;;;25.79;23.92;100307.50;5095263;28;19944;-69
2022/06/17 07:41:33;;;;;;;;;;;;;;;25.79;23.98;100302.03;5032171;28;19917;-70
2022/06/17 07:43:58;;;;;;;;;;;;;;;25.78;23.90;100305.88;5063941;28;19920;-69
2022/06/17 07:46:24;;;;;;;;;;;;;;;25.80;23.82;100309.97;5095856;28;20006;-69
2022/06/17 07:48:49;;;;;;;;;;;;;;;25.81;23.96;100300.63;5095645;28;20333;-69
2022/06/17 07:51:14;;;;;;;;;;;;;;;25.82;23.93;100306.94;5095119;28;19920;-69
2022/06/17 07:53:41;;;;;;;;;;;;;;;25.81;24.06;100303.34;5094638;28;20280;-69
2022/06/17 07:56:07;;;;;;;;;;;;;;;25.83;23.83;100292.94;5094031;28;20318;-69
2022/06/17 07:58:32;;;;;;;;;;;;;;;25.81;23.85;100299.81;5094017;28;19916;-69
2022/06/17 08:00:57;;;;;;;;;;;;;;;25.81;23.99;100300.63;5093910;28;19993;-69
2022/06/17 08:03:23;;;;;;;;;;;;;;;25.82;23.97;100301.47;5096120;28;19920;-69
2022/06/17 08:05:49;;;;;;;;;;;;;;;25.82;23.90;100306.94;5095695;28;20356;-68
2022/06/17 08:08:21;;;;;;;;;;;;;;;25.80;23.74;100309.13;5076544;28;19920;-70
2022/06/17 08:10:46;;;;;;;;;;;;;;;25.80;23.86;100307.22;5094432;28;20320;-70
2022/06/17 08:13:12;;;;;;;;;;;;;;;25.74;24.00;100313.03;5097505;28;20036;-71
2022/06/17 08:15:37;;;;;;;;;;;;;;;25.76;24.00;100313.56;5100912;28;19939;-69
2022/06/17 08:18:02;;;;;;;;;;;;;;;25.81;23.84;100319.78;5096861;28;19917;-70
2022/06/17 08:20:28;;;;;;;;;;;;;;;25.76;23.98;100319.03;5094805;28;19916;-69
2022/06/17 08:22:54;;;;;;;;;;;;;;;25.77;23.91;100326.97;5094635;28;20019;-69
2022/06/17 08:25:19;;;;;;;;;;;;;;;25.78;24.24;100333.25;5094384;28;20250;-69
2022/06/17 08:27:54;;;;;;;;;;;;;;;25.78;24.14;100341.44;5094164;28;20362;-69
2022/06/17 08:30:20;;;;;;;;;;;;;;;25.77;24.03;100337.09;5094871;28;20003;-69
2022/06/17 08:32:45;;;;;;;;;;;;;;;25.75;24.21;100340.13;5094661;28;19920;-69
2022/06/17 08:35:11;;;;;;;;;;;;;;;25.73;24.27;100342.31;5094347;28;19982;-69
2022/06/17 08:37:36;;;;;;;;;;;;;;;25.78;24.08;100338.72;5093850;28;20411;-70
2022/06/17 08:40:02;;;;;;;;;;;;;;;25.76;24.06;100339.00;5094106;28;19916;-69
2022/06/17 08:42:48;;;;;;;;;;;;;;;25.75;24.32;100340.13;5075805;28;20284;-69
2022/06/17 08:45:13;;;;;;;;;;;;;;;25.77;24.17;100331.63;5093279;28;19916;-69
2022/06/17 08:47:38;;;;;;;;;;;;;;;25.75;24.52;100331.91;5093800;28;20338;-69
2022/06/17 08:50:13;;;;;;;;;;;;;;;25.74;24.63;100321.25;5093539;28;19972;-70
2022/06/17 08:52:46;;;;;;;;;;;;;;;25.77;24.47;100331.63;5094782;28;19916;-69
2022/06/17 08:55:11;;;;;;;;;;;;;;;25.71;24.52;100336.31;5094345;28;19991;-69
2022/06/17 08:57:55;;;;;;;;;;;;;;;25.66;24.61;100333.63;5094085;28;19940;-69
2022/06/17 09:00:33;;;;;;;;;;;;;;;25.65;24.86;100330.09;5093560;28;19916;-70
2022/06/17 09:03:17;;;;;;;;;;;;;;;25.68;24.87;100324.03;5055257;28;19951;-70
2022/06/17 09:05:43;;;;;;;;;;;;;;;25.69;24.84;100335.81;5073896;28;19999;-69
2022/06/17 09:08:08;;;;;;;;;;;;;;;25.68;24.81;100329.53;5073556;28;20333;-69
2022/06/17 09:10:39;;;;;;;;;;;;;;;25.67;24.63;100327.06;5073200;28;20062;-69
2022/06/17 09:13:26;;;;;;;;;;;;;;;25.70;24.95;100331.13;5073061;28;19927;-69
2022/06/17 09:15:57;;;;;;;;;;;;;;;25.71;25.04;100332.78;5073057;28;19967;-69
2022/06/17 09:18:30;;;;;;;;;;;;;;;25.67;25.04;100327.06;5073208;28;19920;-69
2022/06/17 09:21:00;;;;;;;;;;;;;;;25.68;24.86;100340.47;5076067;28;19950;-69
2022/06/17 09:23:26;;;;;;;;;;;;;;;25.70;25.00;100342.09;5093243;28;20007;-69
2022/06/17 09:25:51;;;;;;;;;;;;;;;25.69;25.00;100341.28;5092912;28;19924;-69
2022/06/17 09:28:22;;;;;;;;;;;;;;;25.70;25.17;100344.81;5077464;28;19977;-69
2022/06/17 09:30:49;;;;;;;;;;;;;;;25.70;24.95;100351.13;5077752;28;20091;-69
2022/06/17 09:33:17;;;;;;;;;;;;;;;25.69;25.06;100349.47;5078246;28;20353;-69
2022/06/17 09:36:02;;;;;;;;;;;;;;;25.69;25.02;100352.22;5077029;28;20500;-69
2022/06/17 09:38:28;;;;;;;;;;;;;;;25.68;25.17;100362.34;5034655;28;19921;-69
2022/06/17 09:41:01;;;;;;;;;;;;;;;25.67;25.35;100360.72;5034941;28;19917;-69
2022/06/17 09:43:26;;;;;;;;;;;;;;;25.72;25.16;100364.53;5034765;28;19966;-69
2022/06/17 09:46:08;;;;;;;;;;;;;;;25.69;25.41;100371.38;5034788;28;19924;-69
2022/06/17 09:48:52;;;;;;;;;;;;;;;25.70;25.25;100372.19;5034834;28;19925;-69
2022/06/17 09:51:17;;;;;;;;;;;;;;;25.70;25.33;100380.41;5034841;28;19924;-69
2022/06/17 09:53:44;;;;;;;;;;;;;;;25.71;25.33;100376.56;5034894;28;20375;-69
2022/06/17 09:56:09;;;;;;;;;;;;;;;25.71;25.27;100379.31;5034794;28;19969;-69
2022/06/17 09:58:36;;;;;;;;;;;;;;;25.71;25.38;100376.56;5034699;28;19969;-70
2022/06/17 10:01:01;;;;;;;;;;;;;;;25.70;25.19;100377.66;5038837;28;19916;-69
2022/06/17 10:03:28;;;;;;;;;;;;;;;25.73;25.25;100386.09;5054768;28;20059;-69
2022/06/17 10:06:05;;;;;;;;;;;;;;;25.72;25.19;100386.41;5054260;28;19917;-70
2022/06/17 10:08:36;;;;;;;;;;;;;;;25.72;25.19;100383.69;5054175;28;20006;-69
2022/06/17 10:11:16;;;;;;;;;;;;;;;25.70;25.11;100394.06;5054396;28;19916;-69
2022/06/17 10:13:41;;;;;;;;;;;;;;;25.69;25.21;100390.53;5054338;28;19916;-69
2022/06/17 10:19:12;;;;;;;;;;;;;;;25.70;25.57;100403.13;5096714;28;19974;-68
2022/06/17 10:21:37;;;;;;;;;;;;;;;25.70;25.34;100388.59;5097450;28;19986;-69
2022/06/17 10:24:03;;;;;;;;;;;;;;;25.70;25.44;100391.34;5096395;28;20023;-69
2022/06/17 10:26:30;;;;;;;;;;;;;;;25.71;25.44;100401.19;5096822;28;19923;-69
2022/06/17 10:28:56;;;;;;;;;;;;;;;25.72;25.38;100405.56;5078429;28;20361;-69
2022/06/17 10:31:31;;;;;;;;;;;;;;;25.73;25.44;100407.19;5096722;28;19923;-69
2022/06/17 10:33:57;;;;;;;;;;;;;;;25.72;25.42;100403.66;5078877;28;19923;-69
2022/06/17 10:36:22;;;;;;;;;;;;;;;25.73;25.49;100409.94;5096150;28;20353;-69
2022/06/17 10:38:47;;;;;;;;;;;;;;;25.75;25.42;100404.97;5077647;28;20021;-69
2022/06/17 10:41:13;;;;;;;;;;;;;;;25.75;25.39;100408.56;5095951;28;19916;-69
2022/06/17 10:43:45;;;;;;;;;;;;;;;25.73;25.30;100418.13;5095974;28;19924;-69
2022/06/17 10:46:13;;;;;;;;;;;;;;;25.75;25.38;100421.41;5096087;28;19923;-69
2022/06/17 10:48:41;;;;;;;;;;;;;;;25.75;25.26;100424.13;5096305;28;20330;-69
2022/06/17 10:51:07;;;;;;;;;;;;;;;25.76;25.35;100423.84;5096371;28;19951;-68
2022/06/17 10:53:38;;;;;;;;;;;;;;;25.74;25.44;100430.72;5095938;28;20370;-69
2022/06/17 10:56:09;;;;;;;;;;;;;;;25.78;25.19;100432.59;5096117;28;19977;-69
2022/06/17 10:58:34;;;;;;;;;;;;;;;25.75;25.22;100437.81;5095966;28;20352;-69
2022/06/17 11:01:15;;;;;;;;;;;;;;;25.73;25.37;100431.81;5095699;28;20031;-69
2022/06/17 11:03:41;;;;;;;;;;;;;;;25.75;25.37;100433.19;5096014;28;19916;-70
2022/06/17 11:06:09;;;;;;;;;;;;;;;25.74;25.24;100425.25;5097077;28;19916;-69
2022/06/17 11:08:40;;;;;;;;;;;;;;;25.75;25.37;100427.72;5096754;28;20011;-70
2022/06/17 11:13:50;;;;;;;;;;;;;;;25.71;25.49;100423.09;5080710;28;19938;-69
2022/06/17 11:16:16;;;;;;;;;;;;;;;25.71;25.52;100426.63;5078010;28;20350;-69
2022/06/17 11:18:43;;;;;;;;;;;;;;;25.70;25.71;100429.66;5096095;28;19939;-69
2022/06/17 11:21:09;;;;;;;;;;;;;;;25.76;25.32;100428.53;5096341;28;19926;-69
2022/06/17 11:23:35;;;;;;;;;;;;;;;25.73;25.73;100429.91;5077741;28;20010;-70
2022/06/17 11:26:07;;;;;;;;;;;;;;;25.75;25.65;100433.19;5095567;28;19928;-69
2022/06/17 11:28:33;;;;;;;;;;;;;;;25.77;25.59;100435.63;5095551;28;20369;-69
2022/06/17 11:31:02;;;;;;;;;;;;;;;25.79;25.47;100431.50;5095448;28;20374;-69
2022/06/17 11:33:35;;;;;;;;;;;;;;;25.79;25.63;100444.38;5077945;28;19924;-68
2022/06/17 11:36:04;;;;;;;;;;;;;;;25.81;25.55;100437.50;5095820;28;19916;-69
2022/06/17 11:38:30;;;;;;;;;;;;;;;25.82;25.54;100438.31;5095929;28;19920;-69
2022/06/17 11:40:55;;;;;;;;;;;;;;;25.82;25.37;100446.53;5095839;28;19939;-69
2022/06/17 11:43:32;;;;;;;;;;;;;;;25.81;25.38;100442.16;5096248;28;20366;-69
2022/06/17 11:45:57;;;;;;;;;;;;;;;25.79;25.60;100438.91;5078412;28;19916;-69
2022/06/17 11:48:22;;;;;;;;;;;;;;;25.81;25.43;100445.69;5096211;28;19934;-70
2022/06/17 11:51:08;;;;;;;;;;;;;;;25.82;25.34;100444.59;5096648;28;19987;-70
2022/06/17 11:53:43;;;;;;;;;;;;;;;25.82;25.49;100435.59;5095708;28;20014;-70
2022/06/17 11:56:09;;;;;;;;;;;;;;;25.82;25.69;100443.81;5096138;28;19917;-70
2022/06/17 11:58:34;;;;;;;;;;;;;;;25.86;25.65;100451.13;5077814;28;19939;-70
2022/06/17 12:01:10;;;;;;;;;;;;;;;25.84;25.47;100452.53;5077887;28;20015;-70
2022/06/17 12:03:40;;;;;;;;;;;;;;;25.85;25.59;100448.69;5096071;28;19955;-70
2022/06/17 12:06:06;;;;;;;;;;;;;;;25.86;25.31;100453.88;5095731;28;19920;-71
2022/06/17 12:08:33;;;;;;;;;;;;;;;25.86;25.35;100459.34;5096521;28;19962;-70
2022/06/17 12:11:01;;;;;;;;;;;;;;;25.88;25.40;100455.50;5078177;28;19924;-71
2022/06/17 12:13:36;;;;;;;;;;;;;;;25.85;25.51;100454.16;5077434;28;20146;-70
2022/06/17 12:16:14;;;;;;;;;;;;;;;25.84;25.28;100452.53;5094992;28;20002;-70
2022/06/17 12:18:46;;;;;;;;;;;;;;;25.85;25.33;100454.16;5095832;28;20004;-69
2022/06/17 12:21:29;;;;;;;;;;;;;;;25.85;25.46;100448.69;5094678;28;19916;-70
2022/06/17 12:24:09;;;;;;;;;;;;;;;25.88;25.20;100450.84;5094562;28;19978;-70
2022/06/17 12:26:39;;;;;;;;;;;;;;;25.87;25.37;100457.41;5094093;28;19917;-70
2022/06/17 12:29:24;;;;;;;;;;;;;;;25.82;25.13;100449.28;5076307;28;20382;-70
2022/06/17 12:31:50;;;;;;;;;;;;;;;25.85;25.16;100465.94;5093727;28;20020;-70
2022/06/17 12:34:18;;;;;;;;;;;;;;;25.84;24.97;100461.56;5094588;28;20285;-70
2022/06/17 12:36:48;;;;;;;;;;;;;;;25.87;25.21;100468.34;5092099;28;19916;-70
2022/06/17 12:39:17;;;;;;;;;;;;;;;25.87;25.05;100457.41;5074076;28;19923;-69
2022/06/17 12:41:51;;;;;;;;;;;;;;;25.86;25.17;100455.78;5073888;28;19952;-70
2022/06/17 12:44:21;;;;;;;;;;;;;;;25.88;25.12;100447.31;5073910;28;19916;-70
2022/06/17 12:46:52;;;;;;;;;;;;;;;25.86;25.01;100444.84;5056195;28;19922;-70
2022/06/17 12:55:07;;;;;;;;;;;;;;;25.83;25.19;100457.16;5057905;28;19966;-71